sensor_id;sensor_type;location;lat;lon;timestamp;pressure;altitude;pressure_sealevel;temperature;humidity
10366;BME280;5229;41.820;23.490;2023-09-30T00:01:42;90498.25;;;12.88;67.41
10366;BME280;5229;41.820;23.490;2023-09-30T00:04:10;90503.63;;;12.83;68.16
10366;BME280;5229;41.820;23.490;2023-09-30T00:06:37;90501.13;;;12.78;68.46
10366;BME280;5229;41.820;23.490;2023-09-30T00:09:04;90490.09;;;12.64;68.34
10366;BME280;5229;41.820;23.490;2023-09-30T00:11:31;90495.16;;;12.60;69.06
10366;BME280;5229;41.820;23.490;2023-09-30T00:13:58;90497.72;;;12.52;68.89
10366;BME280;5229;41.820;23.490;2023-09-30T00:16:25;90494.81;;;12.45;69.25
10366;BME280;5229;41.820;23.490;2023-09-30T00:18:51;90496.00;;;12.39;69.38
10366;BME280;5229;41.820;23.490;2023-09-30T00:21:20;90501.34;;;12.34;69.60
10366;BME280;5229;41.820;23.490;2023-09-30T00:23:47;90494.13;;;12.31;70.10
10366;BME280;5229;41.820;23.490;2023-09-30T00:26:14;90495.22;;;12.30;69.57
10366;BME280;5229;41.820;23.490;2023-09-30T00:28:41;90495.22;;;12.30;69.31
10366;BME280;5229;41.820;23.490;2023-09-30T00:31:08;90493.97;;;12.27;69.12
10366;BME280;5229;41.820;23.490;2023-09-30T00:33:35;90493.03;;;12.23;69.85
10366;BME280;5229;41.820;23.490;2023-09-30T00:36:06;90489.50;;;12.19;70.54
10366;BME280;5229;41.820;23.490;2023-09-30T00:38:35;90481.53;;;12.07;70.00
10366;BME280;5229;41.820;23.490;2023-09-30T00:41:02;90486.88;;;12.11;70.70
10366;BME280;5229;41.820;23.490;2023-09-30T00:43:29;90494.50;;;12.07;70.59
10366;BME280;5229;41.820;23.490;2023-09-30T00:46:02;90490.22;;;12.03;70.54
10366;BME280;5229;41.820;23.490;2023-09-30T00:48:32;90487.13;;;12.01;70.67
10366;BME280;5229;41.820;23.490;2023-09-30T00:50:59;90484.06;;;11.99;70.33
10366;BME280;5229;41.820;23.490;2023-09-30T00:53:27;90485.44;;;11.96;70.15
10366;BME280;5229;41.820;23.490;2023-09-30T00:55:55;90488.34;;;11.95;71.34
10366;BME280;5229;41.820;23.490;2023-09-30T00:58:25;90485.56;;;11.91;71.02
10366;BME280;5229;41.820;23.490;2023-09-30T01:00:56;90475.31;;;11.86;70.70
10366;BME280;5229;41.820;23.490;2023-09-30T01:03:22;90472.53;;;11.82;71.99
10366;BME280;5229;41.820;23.490;2023-09-30T01:05:49;90471.28;;;11.80;71.98
10366;BME280;5229;41.820;23.490;2023-09-30T01:08:16;90467.47;;;11.77;72.10
10366;BME280;5229;41.820;23.490;2023-09-30T01:10:43;90477.88;;;11.77;71.41
10366;BME280;5229;41.820;23.490;2023-09-30T01:13:11;90481.25;;;11.78;72.09
10366;BME280;5229;41.820;23.490;2023-09-30T01:15:38;90472.66;;;11.77;72.09
10366;BME280;5229;41.820;23.490;2023-09-30T01:18:05;90472.66;;;11.77;71.73
10366;BME280;5229;41.820;23.490;2023-09-30T01:20:32;90475.72;;;11.79;72.51
10366;BME280;5229;41.820;23.490;2023-09-30T01:23:02;90470.22;;;11.81;72.59
10366;BME280;5229;41.820;23.490;2023-09-30T01:25:29;90475.13;;;11.82;72.40
10366;BME280;5229;41.820;23.490;2023-09-30T01:27:56;90469.81;;;11.88;71.67
10366;BME280;5229;41.820;23.490;2023-09-30T01:30:25;90477.03;;;11.91;72.12
10366;BME280;5229;41.820;23.490;2023-09-30T01:32:52;90460.06;;;11.93;72.21
10366;BME280;5229;41.820;23.490;2023-09-30T01:35:19;90471.69;;;11.96;71.79
10366;BME280;5229;41.820;23.490;2023-09-30T01:37:46;90472.59;;;12.00;71.69
10366;BME280;5229;41.820;23.490;2023-09-30T01:40:14;90471.09;;;11.99;72.23
10366;BME280;5229;41.820;23.490;2023-09-30T01:42:43;90474.28;;;11.96;72.06
10366;BME280;5229;41.820;23.490;2023-09-30T01:45:10;90471.03;;;11.90;72.05
10366;BME280;5229;41.820;23.490;2023-09-30T01:47:37;90466.44;;;11.87;72.44
10366;BME280;5229;41.820;23.490;2023-09-30T01:50:05;90464.72;;;11.82;73.14
10366;BME280;5229;41.820;23.490;2023-09-30T01:52:31;90465.03;;;11.81;72.90
10366;BME280;5229;41.820;23.490;2023-09-30T01:54:58;90465.66;;;11.78;72.23
10366;BME280;5229;41.820;23.490;2023-09-30T01:57:26;90455.56;;;11.76;72.80
10366;BME280;5229;41.820;23.490;2023-09-30T01:59:54;90450.94;;;11.73;73.08
10366;BME280;5229;41.820;23.490;2023-09-30T02:02:20;90448.94;;;11.70;73.15
10366;BME280;5229;41.820;23.490;2023-09-30T02:04:47;90444.03;;;11.69;73.22
10366;BME280;5229;41.820;23.490;2023-09-30T02:07:14;90446.66;;;11.69;73.26
10366;BME280;5229;41.820;23.490;2023-09-30T02:09:40;90446.94;;;11.67;73.51
10366;BME280;5229;41.820;23.490;2023-09-30T02:12:09;90450.31;;;11.68;74.19
10366;BME280;5229;41.820;23.490;2023-09-30T02:14:37;90448.94;;;11.70;73.58
10366;BME280;5229;41.820;23.490;2023-09-30T02:17:05;90456.75;;;11.70;73.07
10366;BME280;5229;41.820;23.490;2023-09-30T02:19:31;90455.66;;;11.71;73.43
10366;BME280;5229;41.820;23.490;2023-09-30T02:21:59;90461.34;;;11.73;72.48
10366;BME280;5229;41.820;23.490;2023-09-30T02:24:26;90462.88;;;11.74;73.36
10366;BME280;5229;41.820;23.490;2023-09-30T02:26:52;90458.91;;;11.77;73.81
10366;BME280;5229;41.820;23.490;2023-09-30T02:29:19;90459.19;;;11.75;72.49
10366;BME280;5229;41.820;23.490;2023-09-30T02:31:47;90451.25;;;11.72;73.44
10366;BME280;5229;41.820;23.490;2023-09-30T02:34:14;90451.84;;;11.69;73.10
10366;BME280;5229;41.820;23.490;2023-09-30T02:36:41;90454.88;;;11.62;73.41
10366;BME280;5229;41.820;23.490;2023-09-30T02:39:08;90458.03;;;11.59;74.16
10366;BME280;5229;41.820;23.490;2023-09-30T02:41:35;90458.13;;;11.54;74.48
10366;BME280;5229;41.820;23.490;2023-09-30T02:44:03;90458.44;;;11.53;73.96
10366;BME280;5229;41.820;23.490;2023-09-30T02:46:30;90457.38;;;11.54;74.58
10366;BME280;5229;41.820;23.490;2023-09-30T02:48:58;90459.22;;;11.53;73.89
10366;BME280;5229;41.820;23.490;2023-09-30T02:51:24;90456.63;;;11.53;74.01
10366;BME280;5229;41.820;23.490;2023-09-30T02:53:51;90460.75;;;11.54;74.10
10366;BME280;5229;41.820;23.490;2023-09-30T02:56:18;90457.38;;;11.54;74.34
10366;BME280;5229;41.820;23.490;2023-09-30T02:58:45;90461.50;;;11.55;73.86
10366;BME280;5229;41.820;23.490;2023-09-30T03:01:14;90456.63;;;11.53;74.22
10366;BME280;5229;41.820;23.490;2023-09-30T03:03:42;90457.22;;;11.50;74.05
10366;BME280;5229;41.820;23.490;2023-09-30T03:06:12;90450.47;;;11.49;73.98
10366;BME280;5229;41.820;23.490;2023-09-30T03:08:39;90463.94;;;11.51;73.90
10366;BME280;5229;41.820;23.490;2023-09-30T03:11:06;90461.66;;;11.50;74.51
10366;BME280;5229;41.820;23.490;2023-09-30T03:13:33;90457.22;;;11.50;74.47
10366;BME280;5229;41.820;23.490;2023-09-30T03:16:00;90448.97;;;11.48;74.13
10366;BME280;5229;41.820;23.490;2023-09-30T03:18:28;90452.78;;;11.51;74.75
10366;BME280;5229;41.820;23.490;2023-09-30T03:20:59;90444.81;;;11.47;74.31
10366;BME280;5229;41.820;23.490;2023-09-30T03:23:28;90449.13;;;11.52;74.05
10366;BME280;5229;41.820;23.490;2023-09-30T03:25:56;90449.91;;;11.52;74.46
10366;BME280;5229;41.820;23.490;2023-09-30T03:28:23;90455.09;;;11.52;73.45
10366;BME280;5229;41.820;23.490;2023-09-30T03:30:50;90449.91;;;11.52;74.48
10366;BME280;5229;41.820;23.490;2023-09-30T03:33:17;90457.09;;;11.55;74.36
10366;BME280;5229;41.820;23.490;2023-09-30T03:35:44;90454.94;;;11.57;74.21
10366;BME280;5229;41.820;23.490;2023-09-30T03:38:11;90453.91;;;11.58;74.05
10366;BME280;5229;41.820;23.490;2023-09-30T03:40:40;90452.06;;;11.59;74.72
10366;BME280;5229;41.820;23.490;2023-09-30T03:43:13;90444.28;;;11.59;74.01
10366;BME280;5229;41.820;23.490;2023-09-30T03:45:39;90460.91;;;11.58;74.08
10366;BME280;5229;41.820;23.490;2023-09-30T03:48:06;90450.34;;;11.54;74.45
10366;BME280;5229;41.820;23.490;2023-09-30T03:50:35;90451.25;;;11.50;74.36
10366;BME280;5229;41.820;23.490;2023-09-30T03:53:04;90451.06;;;11.46;74.41
10366;BME280;5229;41.820;23.490;2023-09-30T03:55:33;90447.69;;;11.46;74.17
10366;BME280;5229;41.820;23.490;2023-09-30T03:58:01;90439.16;;;11.45;74.35
10366;BME280;5229;41.820;23.490;2023-09-30T04:00:29;90439.75;;;11.42;74.08
10366;BME280;5229;41.820;23.490;2023-09-30T04:02:56;90448.13;;;11.39;74.65
10366;BME280;5229;41.820;23.490;2023-09-30T04:05:24;90443.06;;;11.34;74.67
10366;BME280;5229;41.820;23.490;2023-09-30T04:07:55;90450.72;;;11.39;74.78
10366;BME280;5229;41.820;23.490;2023-09-30T04:10:22;90451.81;;;11.38;74.95
10366;BME280;5229;41.820;23.490;2023-09-30T04:12:49;90454.56;;;11.42;74.69
10366;BME280;5229;41.820;23.490;2023-09-30T04:15:17;90449.56;;;11.45;74.97
10366;BME280;5229;41.820;23.490;2023-09-30T04:17:44;90449.25;;;11.47;75.14
10366;BME280;5229;41.820;23.490;2023-09-30T04:20:11;90438.38;;;11.45;75.06
10366;BME280;5229;41.820;23.490;2023-09-30T04:22:48;90446.53;;;11.52;74.53
10366;BME280;5229;41.820;23.490;2023-09-30T04:25:16;90451.13;;;11.55;74.37
10366;BME280;5229;41.820;23.490;2023-09-30T04:27:43;90445.16;;;11.54;74.45
10366;BME280;5229;41.820;23.490;2023-09-30T04:30:13;90455.09;;;11.52;74.70
10366;BME280;5229;41.820;23.490;2023-09-30T04:32:42;90456.63;;;11.53;74.41
10366;BME280;5229;41.820;23.490;2023-09-30T04:35:09;90453.56;;;11.51;75.15
10366;BME280;5229;41.820;23.490;2023-09-30T04:37:36;90463.47;;;11.49;74.02
10366;BME280;5229;41.820;23.490;2023-09-30T04:40:04;90456.28;;;11.46;74.50
10366;BME280;5229;41.820;23.490;2023-09-30T04:42:34;90449.72;;;11.49;75.97
10366;BME280;5229;41.820;23.490;2023-09-30T04:45:02;90463.63;;;11.53;75.26
10366;BME280;5229;41.820;23.490;2023-09-30T04:47:31;90452.66;;;11.56;75.43
10366;BME280;5229;41.820;23.490;2023-09-30T04:50:00;90465.25;;;11.62;75.60
10366;BME280;5229;41.820;23.490;2023-09-30T04:52:30;90456.56;;;11.67;75.29
10366;BME280;5229;41.820;23.490;2023-09-30T04:54:57;90461.78;;;11.75;74.61
10366;BME280;5229;41.820;23.490;2023-09-30T04:57:25;90463.22;;;11.81;74.39
10366;BME280;5229;41.820;23.490;2023-09-30T04:59:52;90466.63;;;11.91;74.40
10366;BME280;5229;41.820;23.490;2023-09-30T05:02:19;90465.88;;;11.99;74.73
10366;BME280;5229;41.820;23.490;2023-09-30T05:04:46;90464.38;;;12.06;75.01
10366;BME280;5229;41.820;23.490;2023-09-30T05:07:14;90464.69;;;12.13;74.26
10366;BME280;5229;41.820;23.490;2023-09-30T05:09:40;90471.94;;;12.25;73.92
10366;BME280;5229;41.820;23.490;2023-09-30T05:12:08;90476.28;;;12.38;74.67
10366;BME280;5229;41.820;23.490;2023-09-30T05:14:35;90468.63;;;12.50;74.55
10366;BME280;5229;41.820;23.490;2023-09-30T05:17:02;90476.97;;;12.69;74.04
10366;BME280;5229;41.820;23.490;2023-09-30T05:19:30;90474.34;;;12.86;73.82
10366;BME280;5229;41.820;23.490;2023-09-30T05:21:57;90481.59;;;13.06;73.84
10366;BME280;5229;41.820;23.490;2023-09-30T05:24:27;90475.78;;;13.26;73.24
10366;BME280;5229;41.820;23.490;2023-09-30T05:26:54;90477.31;;;13.44;72.41
10366;BME280;5229;41.820;23.490;2023-09-30T05:29:22;90471.78;;;13.54;71.52
10366;BME280;5229;41.820;23.490;2023-09-30T05:31:49;90477.41;;;13.73;71.66
10366;BME280;5229;41.820;23.490;2023-09-30T05:34:15;90483.06;;;13.92;71.22
10366;BME280;5229;41.820;23.490;2023-09-30T05:36:42;90484.97;;;14.12;70.44
10366;BME280;5229;41.820;23.490;2023-09-30T05:39:09;90468.53;;;14.20;69.68
10366;BME280;5229;41.820;23.490;2023-09-30T05:41:38;90487.50;;;14.46;68.94
10366;BME280;5229;41.820;23.490;2023-09-30T05:44:05;90485.69;;;14.67;68.70
10366;BME280;5229;41.820;23.490;2023-09-30T05:46:33;90490.75;;;14.93;68.30
10366;BME280;5229;41.820;23.490;2023-09-30T05:49:00;90496.28;;;15.20;67.45
10366;BME280;5229;41.820;23.490;2023-09-30T05:51:27;90489.72;;;15.55;66.63
10366;BME280;5229;41.820;23.490;2023-09-30T05:53:53;90487.34;;;15.95;65.73
10366;BME280;5229;41.820;23.490;2023-09-30T05:56:21;90492.16;;;16.49;64.33
10366;BME280;5229;41.820;23.490;2023-09-30T05:58:49;90492.28;;;17.13;62.45
10366;BME280;5229;41.820;23.490;2023-09-30T06:01:16;90496.59;;;17.85;61.18
10366;BME280;5229;41.820;23.490;2023-09-30T06:03:45;90512.00;;;18.72;58.98
10366;BME280;5229;41.820;23.490;2023-09-30T06:06:13;90516.63;;;19.60;57.07
10366;BME280;5229;41.820;23.490;2023-09-30T06:08:41;90520.84;;;20.60;54.80
10366;BME280;5229;41.820;23.490;2023-09-30T06:11:16;90527.84;;;21.68;51.42
10366;BME280;5229;41.820;23.490;2023-09-30T06:13:43;90524.56;;;22.70;48.68
10366;BME280;5229;41.820;23.490;2023-09-30T06:16:12;90519.78;;;23.81;45.90
10366;BME280;5229;41.820;23.490;2023-09-30T06:18:39;90534.63;;;24.78;43.47
10366;BME280;5229;41.820;23.490;2023-09-30T06:21:05;90526.34;;;25.64;41.43
10366;BME280;5229;41.820;23.490;2023-09-30T06:23:32;90528.06;;;26.51;39.38
10366;BME280;5229;41.820;23.490;2023-09-30T06:25:59;90539.13;;;27.25;38.13
10366;BME280;5229;41.820;23.490;2023-09-30T06:28:27;90542.38;;;27.94;37.16
10366;BME280;5229;41.820;23.490;2023-09-30T06:30:56;90539.53;;;28.52;36.24
10366;BME280;5229;41.820;23.490;2023-09-30T06:33:25;90538.72;;;29.19;35.07
10366;BME280;5229;41.820;23.490;2023-09-30T06:35:54;90544.91;;;29.65;34.38
10366;BME280;5229;41.820;23.490;2023-09-30T06:38:21;90542.66;;;29.87;33.28
10366;BME280;5229;41.820;23.490;2023-09-30T06:40:48;90541.97;;;30.06;32.90
10366;BME280;5229;41.820;23.490;2023-09-30T06:43:15;90550.53;;;30.40;32.30
10366;BME280;5229;41.820;23.490;2023-09-30T06:45:42;90548.13;;;30.88;31.29
10366;BME280;5229;41.820;23.490;2023-09-30T06:48:09;90557.81;;;31.37;30.69
10366;BME280;5229;41.820;23.490;2023-09-30T06:50:40;90558.41;;;31.80;29.80
10366;BME280;5229;41.820;23.490;2023-09-30T06:53:07;90554.53;;;32.13;29.16
10366;BME280;5229;41.820;23.490;2023-09-30T06:55:37;90557.69;;;32.56;28.15
10366;BME280;5229;41.820;23.490;2023-09-30T06:58:03;90564.59;;;32.98;27.63
10366;BME280;5229;41.820;23.490;2023-09-30T07:00:33;90562.91;;;33.58;26.78
10366;BME280;5229;41.820;23.490;2023-09-30T07:03:00;90570.22;;;33.70;26.37
10366;BME280;5229;41.820;23.490;2023-09-30T07:05:27;90567.00;;;33.75;26.45
10366;BME280;5229;41.820;23.490;2023-09-30T07:07:56;90571.22;;;33.89;26.85
10366;BME280;5229;41.820;23.490;2023-09-30T07:10:23;90568.50;;;34.14;26.30
10366;BME280;5229;41.820;23.490;2023-09-30T07:12:50;90573.66;;;34.33;26.29
10366;BME280;5229;41.820;23.490;2023-09-30T07:15:16;90575.84;;;34.60;25.81
10366;BME280;5229;41.820;23.490;2023-09-30T07:17:44;90574.13;;;34.87;25.27
10366;BME280;5229;41.820;23.490;2023-09-30T07:20:13;90578.53;;;35.15;24.54
10366;BME280;5229;41.820;23.490;2023-09-30T07:22:40;90576.41;;;35.32;24.77
10366;BME280;5229;41.820;23.490;2023-09-30T07:25:09;90577.78;;;35.58;25.03
10366;BME280;5229;41.820;23.490;2023-09-30T07:27:35;90584.38;;;35.88;24.90
10366;BME280;5229;41.820;23.490;2023-09-30T07:30:03;90594.25;;;36.21;24.22
10366;BME280;5229;41.820;23.490;2023-09-30T07:32:32;90580.22;;;36.44;24.11
10366;BME280;5229;41.820;23.490;2023-09-30T07:34:58;90593.03;;;36.62;24.00
10366;BME280;5229;41.820;23.490;2023-09-30T07:37:25;90589.47;;;36.83;23.58
10366;BME280;5229;41.820;23.490;2023-09-30T07:39:52;90584.19;;;36.97;22.83
10366;BME280;5229;41.820;23.490;2023-09-30T07:42:20;90584.19;;;37.15;22.67
10366;BME280;5229;41.820;23.490;2023-09-30T07:44:47;90586.88;;;37.15;22.89
10366;BME280;5229;41.820;23.490;2023-09-30T07:47:14;90583.84;;;36.50;23.03
10366;BME280;5229;41.820;23.490;2023-09-30T07:49:41;90578.56;;;34.94;23.97
10366;BME280;5229;41.820;23.490;2023-09-30T07:52:08;90581.31;;;33.18;26.42
10366;BME280;5229;41.820;23.490;2023-09-30T07:54:35;90576.72;;;31.50;28.06
10366;BME280;5229;41.820;23.490;2023-09-30T07:57:02;90566.16;;;29.99;30.00
10366;BME280;5229;41.820;23.490;2023-09-30T07:59:30;90560.03;;;28.62;31.71
10366;BME280;5229;41.820;23.490;2023-09-30T08:01:58;90566.31;;;27.57;32.86
10366;BME280;5229;41.820;23.490;2023-09-30T08:04:25;90561.47;;;26.69;34.11
10366;BME280;5229;41.820;23.490;2023-09-30T08:06:52;90557.47;;;25.91;35.83
10366;BME280;5229;41.820;23.490;2023-09-30T08:09:18;90550.25;;;25.25;36.57
10366;BME280;5229;41.820;23.490;2023-09-30T08:11:45;90553.94;;;24.71;37.79
10366;BME280;5229;41.820;23.490;2023-09-30T08:14:12;90546.94;;;24.28;38.10
10366;BME280;5229;41.820;23.490;2023-09-30T08:16:42;90554.75;;;23.97;39.00
10366;BME280;5229;41.820;23.490;2023-09-30T08:19:09;90550.34;;;23.68;39.13
10366;BME280;5229;41.820;23.490;2023-09-30T08:21:36;90554.75;;;23.46;39.52
10366;BME280;5229;41.820;23.490;2023-09-30T08:24:03;90549.72;;;23.34;39.36
10366;BME280;5229;41.820;23.490;2023-09-30T08:26:30;90543.94;;;23.22;38.96
10366;BME280;5229;41.820;23.490;2023-09-30T08:28:56;90542.75;;;23.16;39.00
10366;BME280;5229;41.820;23.490;2023-09-30T08:31:23;90546.16;;;23.16;39.03
10366;BME280;5229;41.820;23.490;2023-09-30T08:33:51;90547.69;;;23.17;38.66
10366;BME280;5229;41.820;23.490;2023-09-30T08:36:18;90546.50;;;23.15;38.58
10366;BME280;5229;41.820;23.490;2023-09-30T08:38:44;90548.03;;;23.16;38.30
10366;BME280;5229;41.820;23.490;2023-09-30T08:41:16;90540.09;;;23.16;37.90
10366;BME280;5229;41.820;23.490;2023-09-30T08:43:53;90540.06;;;23.12;38.29
10366;BME280;5229;41.820;23.490;2023-09-30T08:46:24;90535.53;;;23.13;38.31
10366;BME280;5229;41.820;23.490;2023-09-30T08:48:53;90537.06;;;23.14;38.34
10366;BME280;5229;41.820;23.490;2023-09-30T08:51:21;90541.31;;;23.22;37.89
10366;BME280;5229;41.820;23.490;2023-09-30T08:53:49;90539.88;;;23.31;37.45
10366;BME280;5229;41.820;23.490;2023-09-30T08:56:18;90539.19;;;23.38;37.25
10366;BME280;5229;41.820;23.490;2023-09-30T08:58:45;90532.78;;;23.42;37.11
10366;BME280;5229;41.820;23.490;2023-09-30T09:01:12;90532.78;;;23.46;36.81
10366;BME280;5229;41.820;23.490;2023-09-30T09:03:39;90524.91;;;23.53;36.58
10366;BME280;5229;41.820;23.490;2023-09-30T09:06:07;90525.75;;;23.67;36.95
10366;BME280;5229;41.820;23.490;2023-09-30T09:08:34;90521.69;;;23.84;37.11
10366;BME280;5229;41.820;23.490;2023-09-30T09:11:01;90525.63;;;24.07;36.78
10366;BME280;5229;41.820;23.490;2023-09-30T09:13:45;90521.25;;;24.46;35.49
10366;BME280;5229;41.820;23.490;2023-09-30T09:16:15;90519.84;;;24.80;34.44
10366;BME280;5229;41.820;23.490;2023-09-30T09:18:43;90515.75;;;25.42;34.13
10366;BME280;5229;41.820;23.490;2023-09-30T09:21:12;90522.56;;;26.89;31.88
10366;BME280;5229;41.820;23.490;2023-09-30T09:23:40;90518.88;;;28.86;29.42
10366;BME280;5229;41.820;23.490;2023-09-30T09:26:08;90525.72;;;30.98;27.14
10366;BME280;5229;41.820;23.490;2023-09-30T09:28:36;90523.09;;;32.99;24.71
10366;BME280;5229;41.820;23.490;2023-09-30T09:31:19;90527.06;;;35.01;22.87
10366;BME280;5229;41.820;23.490;2023-09-30T09:33:46;90534.72;;;36.34;21.14
10366;BME280;5229;41.820;23.490;2023-09-30T09:36:15;90530.88;;;37.57;19.41
10366;BME280;5229;41.820;23.490;2023-09-30T09:38:45;90531.81;;;38.52;18.70
10366;BME280;5229;41.820;23.490;2023-09-30T09:41:13;90534.31;;;39.41;18.45
10366;BME280;5229;41.820;23.490;2023-09-30T09:43:41;90542.00;;;40.55;17.04
10366;BME280;5229;41.820;23.490;2023-09-30T09:46:08;90532.34;;;41.60;15.63
10366;BME280;5229;41.820;23.490;2023-09-30T09:48:35;90530.06;;;42.51;15.19
10366;BME280;5229;41.820;23.490;2023-09-30T09:51:02;90534.38;;;43.28;14.60
10366;BME280;5229;41.820;23.490;2023-09-30T09:53:35;90535.28;;;43.89;13.71
10366;BME280;5229;41.820;23.490;2023-09-30T09:56:03;90538.97;;;44.41;13.56
10366;BME280;5229;41.820;23.490;2023-09-30T09:58:32;90535.88;;;44.94;12.33
10366;BME280;5229;41.820;23.490;2023-09-30T10:01:00;90538.03;;;45.17;12.24
10366;BME280;5229;41.820;23.490;2023-09-30T10:03:27;90535.81;;;45.68;12.08
10366;BME280;5229;41.820;23.490;2023-09-30T10:05:54;90535.25;;;46.15;12.04
10366;BME280;5229;41.820;23.490;2023-09-30T10:08:29;90528.63;;;46.29;11.38
10366;BME280;5229;41.820;23.490;2023-09-30T10:11:00;90526.38;;;45.98;11.68
10366;BME280;5229;41.820;23.490;2023-09-30T10:13:50;90531.19;;;45.87;11.75
10366;BME280;5229;41.820;23.490;2023-09-30T10:16:49;90515.88;;;45.62;11.79
10366;BME280;5229;41.820;23.490;2023-09-30T10:19:19;90521.59;;;45.69;11.39
10366;BME280;5229;41.820;23.490;2023-09-30T10:22:22;90514.59;;;46.03;11.11
10366;BME280;5229;41.820;23.490;2023-09-30T10:24:50;90518.22;;;46.22;10.79
10366;BME280;5229;41.820;23.490;2023-09-30T10:27:32;90508.94;;;46.25;11.47
10366;BME280;5229;41.820;23.490;2023-09-30T10:30:06;90511.69;;;46.25;11.02
10366;BME280;5229;41.820;23.490;2023-09-30T10:33:09;90508.78;;;46.18;11.46
10366;BME280;5229;41.820;23.490;2023-09-30T10:35:46;90503.88;;;46.05;11.32
10366;BME280;5229;41.820;23.490;2023-09-30T10:38:39;90507.47;;;45.89;11.39
10366;BME280;5229;41.820;23.490;2023-09-30T10:41:09;90494.94;;;45.18;11.14
10366;BME280;5229;41.820;23.490;2023-09-30T10:43:41;90478.81;;;43.80;11.94
10366;BME280;5229;41.820;23.490;2023-09-30T10:46:30;90474.94;;;41.69;12.94
10366;BME280;5229;41.820;23.490;2023-09-30T10:49:14;90461.81;;;39.47;14.10
10366;BME280;5229;41.820;23.490;2023-09-30T10:51:43;90454.59;;;37.68;15.10
10366;BME280;5229;41.820;23.490;2023-09-30T10:54:12;90447.41;;;36.15;16.59
10366;BME280;5229;41.820;23.490;2023-09-30T10:56:39;90439.66;;;34.98;17.43
10366;BME280;5229;41.820;23.490;2023-09-30T10:59:07;90434.22;;;33.91;18.23
10366;BME280;5229;41.820;23.490;2023-09-30T11:01:35;90423.00;;;32.95;19.28
10366;BME280;5229;41.820;23.490;2023-09-30T11:04:02;90432.44;;;32.18;20.17
10366;BME280;5229;41.820;23.490;2023-09-30T11:06:31;90428.00;;;31.51;20.88
10366;BME280;5229;41.820;23.490;2023-09-30T11:09:00;90423.84;;;30.82;20.98
10366;BME280;5229;41.820;23.490;2023-09-30T11:11:35;90415.63;;;30.14;20.86
10366;BME280;5229;41.820;23.490;2023-09-30T11:14:03;90413.06;;;29.45;21.19
10366;BME280;5229;41.820;23.490;2023-09-30T11:16:41;90404.81;;;28.87;21.96
10366;BME280;5229;41.820;23.490;2023-09-30T11:19:08;90414.47;;;28.51;22.55
10366;BME280;5229;41.820;23.490;2023-09-30T11:21:35;90403.44;;;28.19;23.13
10366;BME280;5229;41.820;23.490;2023-09-30T11:24:02;90403.75;;;27.90;23.28
10366;BME280;5229;41.820;23.490;2023-09-30T11:26:30;90412.38;;;27.64;23.40
10366;BME280;5229;41.820;23.490;2023-09-30T11:29:05;90403.94;;;27.32;23.46
10366;BME280;5229;41.820;23.490;2023-09-30T11:31:31;90401.53;;;27.04;24.25
10366;BME280;5229;41.820;23.490;2023-09-30T11:34:01;90403.25;;;26.77;24.27
10366;BME280;5229;41.820;23.490;2023-09-30T11:36:29;90391.25;;;26.48;25.06
10366;BME280;5229;41.820;23.490;2023-09-30T11:38:57;90400.81;;;26.32;25.79
10366;BME280;5229;41.820;23.490;2023-09-30T11:41:33;90396.75;;;26.13;26.04
10366;BME280;5229;41.820;23.490;2023-09-30T11:44:02;90394.53;;;25.94;25.43
10366;BME280;5229;41.820;23.490;2023-09-30T11:46:47;90390.81;;;25.74;25.59
10366;BME280;5229;41.820;23.490;2023-09-30T11:49:26;90384.81;;;25.56;25.71
10366;BME280;5229;41.820;23.490;2023-09-30T11:51:53;90377.25;;;25.37;25.83
10366;BME280;5229;41.820;23.490;2023-09-30T11:54:20;90380.66;;;25.27;25.65
10366;BME280;5229;41.820;23.490;2023-09-30T11:56:48;90368.56;;;25.15;26.06
10366;BME280;5229;41.820;23.490;2023-09-30T11:59:16;90370.47;;;25.08;26.75
10366;BME280;5229;41.820;23.490;2023-09-30T12:01:45;90369.72;;;25.04;26.67
10366;BME280;5229;41.820;23.490;2023-09-30T12:04:14;90366.31;;;25.00;26.92
10366;BME280;5229;41.820;23.490;2023-09-30T12:06:44;90368.97;;;24.93;27.12
10366;BME280;5229;41.820;23.490;2023-09-30T12:09:10;90367.44;;;24.85;27.87
10366;BME280;5229;41.820;23.490;2023-09-30T12:11:40;90365.56;;;24.75;27.50
10366;BME280;5229;41.820;23.490;2023-09-30T12:14:10;90363.69;;;24.65;27.60
10366;BME280;5229;41.820;23.490;2023-09-30T12:16:38;90361.38;;;24.56;27.65
10366;BME280;5229;41.820;23.490;2023-09-30T12:19:05;90349.22;;;24.45;27.80
10366;BME280;5229;41.820;23.490;2023-09-30T12:21:32;90353.03;;;24.37;27.60
10366;BME280;5229;41.820;23.490;2023-09-30T12:24:01;90355.25;;;24.21;27.90
10366;BME280;5229;41.820;23.490;2023-09-30T12:26:28;90347.63;;;23.98;27.72
10366;BME280;5229;41.820;23.490;2023-09-30T12:28:55;90345.31;;;23.79;27.63
10366;BME280;5229;41.820;23.490;2023-09-30T12:31:22;90341.13;;;23.71;27.86
10366;BME280;5229;41.820;23.490;2023-09-30T12:33:49;90339.22;;;23.72;27.87
10366;BME280;5229;41.820;23.490;2023-09-30T12:36:17;90340.00;;;23.76;27.78
10366;BME280;5229;41.820;23.490;2023-09-30T12:38:44;90337.34;;;23.72;27.85
10366;BME280;5229;41.820;23.490;2023-09-30T12:41:13;90325.22;;;23.68;28.08
10366;BME280;5229;41.820;23.490;2023-09-30T12:43:39;90338.47;;;23.75;28.16
10366;BME280;5229;41.820;23.490;2023-09-30T12:46:08;90336.56;;;23.68;27.88
10366;BME280;5229;41.820;23.490;2023-09-30T12:48:35;90330.88;;;23.63;28.05
10366;BME280;5229;41.820;23.490;2023-09-30T12:51:03;90329.38;;;23.62;28.22
10366;BME280;5229;41.820;23.490;2023-09-30T12:53:32;90332.00;;;23.62;27.91
10366;BME280;5229;41.820;23.490;2023-09-30T12:56:00;90323.69;;;23.60;27.97
10366;BME280;5229;41.820;23.490;2023-09-30T12:58:28;90324.06;;;23.62;28.15
10366;BME280;5229;41.820;23.490;2023-09-30T13:00:54;90319.16;;;23.67;27.93
10366;BME280;5229;41.820;23.490;2023-09-30T13:03:21;90312.72;;;23.72;28.26
10366;BME280;5229;41.820;23.490;2023-09-30T13:05:48;90316.50;;;23.71;28.51
10366;BME280;5229;41.820;23.490;2023-09-30T13:08:16;90311.22;;;23.67;28.62